Waterford, MI

1:22 PM EST on February 25, 2017 (GMT -0500)
orchard crest north | | Change Station

Elev 965 ft 42.61 °N, 83.40 °W | Updated 56 seconds ago

Mostly Cloudy
Mostly Cloudy
32.4 °F
Feels Like 29 °F
N
4.0
Wind Variable Wind from SW

Today
High -- | Low -- °F
--% Chance of Precip.
Yesterday
High -- | Low -- °F
Precip. -- in
Pressure 29.62 in
Visibility 10.0 miles
Clouds Mostly Cloudy 3100 ft
Mostly Cloudy 4200 ft
Windchill 29 °F
Dew Point 21 °F
Humidity 65%
Rainfall 0.00 in
Snow Depth Not available.
7:15 AM 6:18 PM
Waning Crescent, 1% visible
METAR KPTK 251753Z 25019G33KT 10SM BKN031 BKN042 M01/M08 A2960 RMK AO2 PK WND 26033/1745 SLP028 60001 T10061078 10022 21006 51020 $
Pressure 29.62 in
Visibility 10.0 miles
Clouds Mostly Cloudy 3100 ft
Mostly Cloudy 4200 ft
Windchill 29 °F
Dew Point 21 °F
Humidity 65%
Rainfall 0.00 in
Snow Depth Not available.
7:15 AM 6:18 PM
Waning Crescent, 1% visible
METAR KPTK 251753Z 25019G33KT 10SM BKN031 BKN042 M01/M08 A2960 RMK AO2 PK WND 26033/1745 SLP028 60001 T10061078 10022 21006 51020 $

Get Your Daily Forecast Email!

Thanks for signing up!

Be on the lookout for a verification email in your inbox.

You'll start receiving the daily forecast at 8 AM.

×

10-Day Weather Forecast

Almanac

Astronomy

Feb. 25, 2017 Rise Set
Actual Time
Civil Twilight
Nautical Twilight
Astronomical Twilight
Moon
Length of Visible Light
Length of Day
Tomorrow will be .
, % of the Moon is Illuminated

Today's Extremes

State Highs State Lows

Community

WunderPhotos

Upload Photos

1,962,540 photos uploaded!

WunderBlog® & News

Nearby

Air Quality

  Air Quality AQ Index Pollutant
Not available.

Snow Depth

Station Depth Elevation

Earthquake Activity

City Distance Mag. Time & Date
Minimum magnitude displayed is 2.5.

Coastal Water Temperatures

Place Temperature

Stations

Nearby Weather Stations

Station Location Temp. Windchill Dew Point Humidity Wind Precip. Elev Updated Type
                   

Watches & Warnings

There are currently no watches in effect.